Time;durP1;ratioP1;P1;durP2;ratioP2;P2;SDS_P1;SDS_P2;PMS_P1;PMS_P2;Temp;Humidity;BMP_temperature;BMP_pressure;BME280_temperature;BME280_humidity;BME280_pressure;Samples;Min_cycle;Max_cycle;Signal;HPM_P1;HPM_P2
2021/09/07 00:02:15;;;;;;;8.07;5.30;;;;;;;15.01;100.00;101543.28;5158861;28;20043;-79
2021/09/07 00:04:45;;;;;;;9.60;5.80;;;;;;;15.21;100.00;101546.00;5161513;28;20018;-78
2021/09/07 00:07:15;;;;;;;9.70;5.55;;;;;;;15.13;100.00;101542.81;5150944;28;20507;-78
2021/09/07 00:09:45;;;;;;;9.02;5.50;;;;;;;15.06;100.00;101536.06;5158576;28;20022;-77
2021/09/07 00:12:16;;;;;;;10.17;5.80;;;;;;;15.07;100.00;101535.16;5161077;28;20399;-77
2021/09/07 00:14:47;;;;;;;8.10;5.45;;;;;;;15.06;100.00;101536.06;5160534;28;20277;-77
2021/09/07 00:17:17;;;;;;;8.68;5.55;;;;;;;15.01;100.00;101535.38;5161137;28;20477;-77
2021/09/07 00:19:47;;;;;;;10.40;5.10;;;;;;;15.14;100.00;101530.47;5161297;28;20034;-79
2021/09/07 00:22:18;;;;;;;8.40;5.60;;;;;;;15.01;100.00;101526.63;5160712;28;20030;-77
2021/09/07 00:24:48;;;;;;;10.13;5.80;;;;;;;14.93;100.00;101512.88;5161252;28;20339;-77
2021/09/07 00:27:18;;;;;;;8.93;5.22;;;;;;;14.94;100.00;101509.34;5160356;28;20256;-77
2021/09/07 00:29:48;;;;;;;11.20;5.88;;;;;;;14.78;100.00;101516.09;5160975;28;20077;-79
2021/09/07 00:32:19;;;;;;;9.48;5.13;;;;;;;14.85;100.00;101510.53;5160408;28;20034;-77
2021/09/07 00:34:49;;;;;;;8.48;5.07;;;;;;;14.87;100.00;101507.88;5161352;28;20030;-78
2021/09/07 00:37:19;;;;;;;10.77;5.32;;;;;;;14.88;100.00;101509.59;5160938;28;20034;-78
2021/09/07 00:39:50;;;;;;;8.88;5.05;;;;;;;14.75;100.00;101510.97;5159832;28;20109;-80
2021/09/07 00:42:20;;;;;;;10.20;4.78;;;;;;;14.71;100.00;101501.47;5160883;28;20030;-78
2021/09/07 00:44:51;;;;;;;8.85;5.38;;;;;;;14.73;100.00;101506.69;5160431;28;20077;-78
2021/09/07 00:47:21;;;;;;;11.27;5.30;;;;;;;14.69;100.00;101500.66;5156928;28;20030;-78
2021/09/07 00:49:51;;;;;;;8.30;5.22;;;;;;;14.77;100.00;101505.66;5160541;28;20290;-78
2021/09/07 00:52:22;;;;;;;10.77;5.47;;;;;;;14.79;100.00;101503.81;5160270;28;20117;-77
2021/09/07 00:54:53;;;;;;;7.78;5.18;;;;;;;14.74;100.00;101508.41;5160512;28;20026;-79
2021/09/07 00:57:24;;;;;;;9.23;5.40;;;;;;;14.72;100.00;101504.94;5160417;28;20372;-78
2021/09/07 00:59:55;;;;;;;9.98;5.78;;;;;;;14.75;100.00;101507.47;5160637;28;20031;-78
2021/09/07 01:02:26;;;;;;;8.68;5.40;;;;;;;14.86;100.00;101501.72;5159989;28;20467;-78
2021/09/07 01:04:56;;;;;;;10.03;5.33;;;;;;;14.92;100.00;101498.88;5160327;28;20080;-78
2021/09/07 01:07:26;;;;;;;8.00;4.82;;;;;;;14.98;100.00;101495.16;5158785;28;20274;-77
2021/09/07 01:09:57;;;;;;;8.30;5.05;;;;;;;14.91;100.00;101493.66;5159675;28;20026;-79
2021/09/07 01:12:27;;;;;;;10.05;5.55;;;;;;;14.76;100.00;101488.16;5161050;28;20489;-78
2021/09/07 01:14:57;;;;;;;9.10;5.72;;;;;;;14.69;100.00;101494.53;5160078;28;20030;-77
2021/09/07 01:17:28;;;;;;;9.25;5.82;;;;;;;14.56;100.00;101488.03;5160489;28;20087;-77
2021/09/07 01:19:58;;;;;;;8.57;5.60;;;;;;;14.49;100.00;101495.28;5160331;28;20034;-77
2021/09/07 01:22:28;;;;;;;8.43;5.40;;;;;;;14.61;100.00;101504.50;5160310;28;20191;-77
2021/09/07 01:24:58;;;;;;;8.10;5.38;;;;;;;14.50;100.00;101490.88;5159830;28;20104;-79
2021/09/07 01:27:29;;;;;;;9.15;5.63;;;;;;;14.44;100.00;101491.97;5160393;28;20373;-78
2021/09/07 01:29:59;;;;;;;7.65;5.18;;;;;;;14.52;100.00;101489.91;5159972;28;20026;-78
2021/09/07 01:32:30;;;;;;;8.00;5.47;;;;;;;14.37;100.00;101492.22;5160379;28;20022;-79
2021/09/07 01:35:00;;;;;;;9.75;5.60;;;;;;;14.26;100.00;101487.38;5160438;28;20061;-78
2021/09/07 01:37:30;;;;;;;9.27;5.20;;;;;;;14.24;100.00;101490.97;5159721;28;20523;-77
2021/09/07 01:40:01;;;;;;;11.65;5.43;;;;;;;14.20;100.00;101489.34;5159619;28;20139;-77
2021/09/07 01:42:31;;;;;;;9.13;5.38;;;;;;;14.11;100.00;101502.81;5160011;28;20030;-78
2021/09/07 01:45:01;;;;;;;7.80;4.82;;;;;;;14.22;100.00;101498.91;5159976;28;20030;-78
2021/09/07 01:47:32;;;;;;;9.88;5.22;;;;;;;14.25;100.00;101500.59;5159997;28;20050;-78
2021/09/07 01:50:02;;;;;;;7.78;5.32;;;;;;;14.20;100.00;101502.50;5160502;28;20030;-79
2021/09/07 01:52:32;;;;;;;7.53;4.78;;;;;;;14.18;100.00;101493.81;5163319;28;20041;-79
2021/09/07 01:55:03;;;;;;;8.48;5.20;;;;;;;14.16;100.00;101496.50;5163351;28;20025;-79
2021/09/07 01:57:33;;;;;;;8.55;5.40;;;;;;;14.17;100.00;101492.97;5163303;28;20065;-78
2021/09/07 02:00:05;;;;;;;8.60;5.57;;;;;;;14.09;100.00;101499.38;5163236;28;20034;-78
2021/09/07 02:02:35;;;;;;;7.75;5.32;;;;;;;14.11;100.00;101505.44;5163288;28;20049;-78
2021/09/07 02:05:06;;;;;;;8.57;5.35;;;;;;;14.21;100.00;101504.22;5163489;28;20030;-80
2021/09/07 02:07:36;;;;;;;7.78;4.95;;;;;;;14.14;100.00;101508.81;5162921;28;20061;-78
2021/09/07 02:10:08;;;;;;;7.22;5.28;;;;;;;14.08;100.00;101498.50;5162687;28;20022;-79
2021/09/07 02:12:39;;;;;;;10.18;6.03;;;;;;;14.14;100.00;101503.56;5163102;28;20022;-78
2021/09/07 02:15:10;;;;;;;7.90;5.45;;;;;;;14.09;100.00;101509.91;5163645;28;20109;-78
2021/09/07 02:17:41;;;;;;;9.60;5.78;;;;;;;14.11;100.00;101521.22;5163320;28;20460;-79
2021/09/07 02:20:12;;;;;;;10.07;5.50;;;;;;;14.03;100.00;101523.22;5163276;28;20022;-77
2021/09/07 02:22:43;;;;;;;9.38;5.60;;;;;;;14.00;100.00;101520.72;5163869;28;20034;-79
2021/09/07 02:25:13;;;;;;;10.57;5.78;;;;;;;13.88;100.00;101523.78;5163025;28;20105;-77
2021/09/07 02:27:43;;;;;;;8.77;5.55;;;;;;;13.95;100.00;101518.22;5163754;28;20037;-79
2021/09/07 02:30:14;;;;;;;10.55;6.05;;;;;;;13.99;100.00;101527.75;5160865;28;20029;-78
2021/09/07 02:32:44;;;;;;;8.70;5.43;;;;;;;14.11;100.00;101508.91;5163198;28;20062;-78
2021/09/07 02:35:14;;;;;;;8.20;5.63;;;;;;;14.16;100.00;101507.03;5163189;28;20030;-80
2021/09/07 02:37:45;;;;;;;9.23;5.88;;;;;;;14.10;100.00;101501.09;5162898;28;20026;-77
2021/09/07 02:40:15;;;;;;;9.32;5.32;;;;;;;14.06;100.00;101489.81;5169926;28;20029;-78
2021/09/07 02:42:45;;;;;;;8.70;5.40;;;;;;;14.00;100.00;101487.41;5162358;28;20053;-79
2021/09/07 02:45:16;;;;;;;7.35;5.18;;;;;;;14.01;100.00;101485.63;5162517;28;20109;-78
2021/09/07 02:47:46;;;;;;;9.70;4.72;;;;;;;14.01;100.00;101485.63;5162531;28;20092;-78
2021/09/07 02:50:17;;;;;;;8.77;5.45;;;;;;;13.93;100.00;101485.88;5162637;28;20026;-77
2021/09/07 02:52:47;;;;;;;8.20;5.35;;;;;;;13.94;100.00;101489.41;5162352;28;20117;-78
2021/09/07 02:55:17;;;;;;;9.50;5.72;;;;;;;13.72;100.00;101491.03;5161739;28;20352;-78
2021/09/07 02:57:47;;;;;;;9.25;5.68;;;;;;;13.71;100.00;101490.16;5162829;28;20026;-77
2021/09/07 03:00:18;;;;;;;8.32;5.68;;;;;;;13.46;100.00;101491.91;5162066;28;20121;-79
2021/09/07 03:02:48;;;;;;;8.13;5.32;;;;;;;13.48;100.00;101491.84;5162600;28;20037;-78
2021/09/07 03:05:18;;;;;;;8.93;4.97;;;;;;;13.45;100.00;101490.19;5161850;28;20056;-78
2021/09/07 03:07:49;;;;;;;10.75;5.80;;;;;;;14.06;100.00;101494.22;5162182;28;20116;-79
2021/09/07 03:10:19;;;;;;;9.53;5.40;;;;;;;14.06;100.00;101488.97;5162490;28;20034;-78
2021/09/07 03:12:49;;;;;;;8.93;5.55;;;;;;;14.10;100.00;101501.09;5162702;28;20284;-78
2021/09/07 03:15:20;;;;;;;8.60;5.43;;;;;;;13.87;100.00;101490.50;5162290;28;20640;-78
2021/09/07 03:17:50;;;;;;;10.30;6.50;;;;;;;13.80;100.00;101491.63;5161991;28;20030;-78
2021/09/07 03:20:20;;;;;;;9.27;5.85;;;;;;;13.80;100.00;101492.50;5161659;28;20026;-79
2021/09/07 03:22:51;;;;;;;9.98;5.53;;;;;;;13.74;100.00;101495.31;5158548;28;20038;-78
2021/09/07 03:25:21;;;;;;;10.70;6.47;;;;;;;13.77;100.00;101497.84;5162169;28;20030;-78
2021/09/07 03:27:51;;;;;;;9.60;6.10;;;;;;;13.84;100.00;101491.47;5162707;28;20026;-79
2021/09/07 03:30:23;;;;;;;9.57;6.07;;;;;;;13.84;100.00;101495.88;5161494;28;20030;-79
2021/09/07 03:32:53;;;;;;;8.73;5.70;;;;;;;13.91;100.00;101486.88;5161996;28;20492;-78
2021/09/07 03:35:23;;;;;;;10.00;5.65;;;;;;;13.98;100.00;101485.75;5161469;28;20157;-78
2021/09/07 03:37:54;;;;;;;9.43;5.60;;;;;;;13.98;100.00;101485.75;5160617;28;20502;-79
2021/09/07 03:40:25;;;;;;;8.63;5.05;;;;;;;13.88;100.00;101490.47;5161169;28;20026;-78
2021/09/07 03:42:56;;;;;;;9.63;5.55;;;;;;;13.89;100.00;101488.72;5161776;28;20064;-78
2021/09/07 03:45:26;;;;;;;9.43;5.40;;;;;;;13.86;100.00;101494.03;5161170;28;20080;-79
2021/09/07 03:47:56;;;;;;;9.23;6.13;;;;;;;13.85;100.00;101489.69;5161499;28;20104;-78
2021/09/07 03:50:26;;;;;;;7.60;5.40;;;;;;;13.94;100.00;101502.53;5161678;28;20034;-78
2021/09/07 03:52:57;;;;;;;9.15;5.68;;;;;;;13.89;100.00;101497.44;5159622;28;20066;-78
2021/09/07 03:55:27;;;;;;;9.05;5.65;;;;;;;13.89;100.00;101501.84;5160477;28;20080;-78
2021/09/07 03:57:57;;;;;;;9.57;5.50;;;;;;;13.79;100.00;101506.56;5162090;28;20034;-78
2021/09/07 04:00:28;;;;;;;10.10;5.57;;;;;;;13.88;100.00;101500.13;5161164;28;20472;-80
2021/09/07 04:02:58;;;;;;;7.93;5.30;;;;;;;13.93;100.00;101503.44;5159907;28;20453;-79
2021/09/07 04:05:29;;;;;;;7.78;5.25;;;;;;;14.02;100.00;101505.75;5160262;28;20073;-78
2021/09/07 04:07:59;;;;;;;8.83;5.13;;;;;;;14.00;100.00;101508.44;5161292;28;20018;-78
2021/09/07 04:10:29;;;;;;;8.07;5.20;;;;;;;13.89;100.00;101512.34;5161260;28;20281;-78
2021/09/07 04:12:59;;;;;;;8.82;5.90;;;;;;;13.81;100.00;101514.38;5161436;28;20976;-78
2021/09/07 04:15:30;;;;;;;8.73;5.22;;;;;;;13.88;100.00;101522.00;5161329;28;20069;-78
2021/09/07 04:18:00;;;;;;;9.00;6.30;;;;;;;13.87;100.00;101508.88;5161787;28;20128;-79
2021/09/07 04:20:30;;;;;;;8.07;5.50;;;;;;;13.86;100.00;101512.44;5158834;28;20062;-78
2021/09/07 04:23:01;;;;;;;11.40;6.13;;;;;;;13.80;100.00;101521.41;5160838;28;20028;-79
2021/09/07 04:25:31;;;;;;;10.82;6.47;;;;;;;13.93;100.00;101509.53;5161289;28;20026;-78
2021/09/07 04:28:01;;;;;;;8.40;5.72;;;;;;;13.91;100.00;101515.78;5161218;28;20410;-78
2021/09/07 04:30:32;;;;;;;9.38;5.55;;;;;;;13.85;100.00;101511.59;5160878;28;20026;-78
2021/09/07 04:33:02;;;;;;;10.93;6.25;;;;;;;13.88;100.00;101515.91;5161065;28;20053;-78
2021/09/07 04:35:32;;;;;;;8.38;5.43;;;;;;;13.92;100.00;101512.25;5160350;28;20125;-78
2021/09/07 04:38:02;;;;;;;9.88;6.28;;;;;;;14.04;100.00;101506.53;5186921;23;20042;-81
2021/09/07 04:40:33;;;;;;;9.32;5.72;;;;;;;13.97;100.00;101515.56;5159594;28;20085;-81
2021/09/07 04:43:03;;;;;;;10.10;5.83;;;;;;;13.96;100.00;101514.72;5163291;28;20030;-81
2021/09/07 04:45:33;;;;;;;9.60;6.03;;;;;;;13.94;100.00;101526.19;5163022;28;20277;-81
2021/09/07 04:48:04;;;;;;;12.52;6.45;;;;;;;14.03;100.00;101516.22;5167576;28;20522;-82
2021/09/07 04:50:34;;;;;;;8.95;6.00;;;;;;;14.11;100.00;101529.09;5165798;28;20382;-81
2021/09/07 04:53:04;;;;;;;8.60;5.90;;;;;;;14.17;100.00;101524.53;5159595;28;20037;-81
2021/09/07 04:55:35;;;;;;;9.45;5.88;;;;;;;14.21;100.00;101533.13;5182293;28;20030;-81
2021/09/07 04:58:05;;;;;;;8.75;5.55;;;;;;;14.27;100.00;101532.94;5166272;28;20414;-81
2021/09/07 05:00:36;;;;;;;9.07;5.90;;;;;;;14.37;100.00;101529.94;5164823;28;20026;-81
2021/09/07 05:03:06;;;;;;;8.23;5.20;;;;;;;14.41;100.00;101528.06;5179288;28;20034;-81
2021/09/07 05:05:36;;;;;;;8.60;5.85;;;;;;;14.35;100.00;101538.78;5164446;28;20025;-82
2021/09/07 05:08:07;;;;;;;10.15;5.78;;;;;;;14.30;100.00;101533.69;5184289;28;20030;-82
2021/09/07 05:10:37;;;;;;;9.88;6.13;;;;;;;14.27;100.00;101536.41;5182203;28;20028;-81
2021/09/07 05:13:07;;;;;;;10.02;6.00;;;;;;;14.33;100.00;101535.34;5159437;28;20026;-82
2021/09/07 05:15:38;;;;;;;9.55;5.72;;;;;;;14.31;100.00;101539.81;5184838;28;20022;-81
2021/09/07 05:18:08;;;;;;;9.82;5.65;;;;;;;14.31;100.00;101535.41;5180226;28;20388;-81
2021/09/07 05:20:39;;;;;;;8.70;5.43;;;;;;;14.32;100.00;101538.88;5172147;28;20391;-81
2021/09/07 05:23:09;;;;;;;9.48;5.57;;;;;;;14.30;100.00;101535.47;5146345;28;20026;-81
2021/09/07 05:25:39;;;;;;;8.57;5.90;;;;;;;14.35;100.00;101536.16;5176143;28;20182;-81
2021/09/07 05:28:09;;;;;;;9.07;5.60;;;;;;;14.45;100.00;101556.81;5161053;28;20097;-81
2021/09/07 05:30:40;;;;;;;9.13;5.43;;;;;;;14.55;100.00;101554.69;5157543;28;20037;-82
2021/09/07 05:33:10;;;;;;;9.82;5.70;;;;;;;14.63;100.00;101556.13;5152956;28;20034;-81
2021/09/07 05:35:40;;;;;;;7.75;5.47;;;;;;;14.60;100.00;101561.50;5159556;28;20079;-81
2021/09/07 05:38:10;;;;;;;8.57;5.47;;;;;;;14.72;100.00;101561.09;5174650;28;20093;-82
2021/09/07 05:40:41;;;;;;;8.18;5.38;;;;;;;14.81;100.00;101565.16;5161798;28;20431;-81
2021/09/07 05:43:11;;;;;;;9.77;5.90;;;;;;;14.88;100.00;101560.44;5157616;28;20097;-81
2021/09/07 05:45:41;;;;;;;10.43;6.72;;;;;;;15.05;100.00;101560.66;5175679;28;20491;-82
2021/09/07 05:48:12;;;;;;;9.40;6.03;;;;;;;15.07;100.00;101560.63;5160737;28;20029;-81
2021/09/07 05:50:42;;;;;;;10.17;5.87;;;;;;;15.16;100.00;101562.91;5174696;28;20376;-82
2021/09/07 05:53:12;;;;;;;9.32;6.20;;;;;;;15.34;100.00;101560.44;5151487;28;20269;-81
2021/09/07 05:55:42;;;;;;;10.73;6.43;;;;;;;15.45;100.00;101558.25;5161422;28;20044;-81
2021/09/07 05:58:13;;;;;;;11.70;6.15;;;;;;;15.64;100.00;101556.59;5175214;28;20026;-82
2021/09/07 06:00:43;;;;;;;12.07;6.95;;;;;;;15.54;100.00;101563.13;5173468;28;20069;-81
2021/09/07 06:03:13;;;;;;;10.65;6.25;;;;;;;15.71;100.00;101562.47;5168733;28;20033;-81
2021/09/07 06:05:44;;;;;;;9.27;6.30;;;;;;;15.61;100.00;101563.75;5159590;28;20385;-81
2021/09/07 06:08:14;;;;;;;8.30;5.67;;;;;;;15.71;100.00;101558.03;5161950;28;20029;-81
2021/09/07 06:10:44;;;;;;;14.32;7.13;;;;;;;15.86;100.00;101562.69;5159538;28;20474;-81
2021/09/07 06:13:14;;;;;;;10.38;6.68;;;;;;;16.14;100.00;101571.16;5162293;28;20032;-82
2021/09/07 06:15:45;;;;;;;10.43;6.68;;;;;;;16.33;100.00;101563.31;5177636;28;20100;-82
2021/09/07 06:18:15;;;;;;;14.23;6.63;;;;;;;16.69;100.00;101562.59;5180649;28;20054;-82
2021/09/07 06:20:45;;;;;;;11.35;7.55;;;;;;;17.06;100.00;101567.91;5179673;28;20296;-82
2021/09/07 06:23:16;;;;;;;11.35;7.28;;;;;;;17.24;100.00;101574.97;5168596;28;20399;-82
2021/09/07 06:25:46;;;;;;;11.10;7.13;;;;;;;17.33;100.00;101577.19;5160718;28;20018;-81
2021/09/07 06:28:19;;;;;;;12.32;6.82;;;;;;;17.16;100.00;101577.97;5157630;28;20033;-82
2021/09/07 06:30:50;;;;;;;11.57;7.00;;;;;;;17.21;100.00;101577.75;5156686;28;20446;-81
2021/09/07 06:33:20;;;;;;;17.50;8.32;;;;;;;17.21;99.30;101572.47;5152839;28;20380;-81
2021/09/07 06:35:50;;;;;;;14.25;7.88;;;;;;;17.30;98.47;101574.72;5174533;28;20034;-82
2021/09/07 06:38:21;;;;;;;14.02;8.10;;;;;;;17.49;97.43;101579.06;5171830;28;20287;-82
2021/09/07 06:40:51;;;;;;;14.13;8.30;;;;;;;17.64;96.83;101573.03;5162318;28;20377;-82
2021/09/07 06:43:21;;;;;;;14.57;8.60;;;;;;;17.62;96.48;101579.34;5159140;28;20274;-82
2021/09/07 06:45:51;;;;;;;14.48;8.88;;;;;;;17.62;95.88;101584.63;5162349;28;20660;-82
2021/09/07 06:48:22;;;;;;;13.47;8.40;;;;;;;17.83;96.09;101583.59;5158712;28;20536;-81
2021/09/07 06:50:52;;;;;;;11.93;8.20;;;;;;;18.15;95.01;101585.50;5175900;28;20276;-81
2021/09/07 06:53:22;;;;;;;16.60;9.63;;;;;;;18.28;93.94;101576.00;5150361;28;20033;-81
2021/09/07 06:55:53;;;;;;;18.10;9.82;;;;;;;18.74;91.25;101582.34;5179993;28;20018;-81
2021/09/07 06:58:23;;;;;;;16.27;9.50;;;;;;;19.46;89.17;101583.66;5158693;28;20053;-81
2021/09/07 07:00:54;;;;;;;17.53;9.47;;;;;;;20.26;84.44;101577.22;5156822;28;20037;-82
2021/09/07 07:03:24;;;;;;;13.50;8.18;;;;;;;22.53;76.44;101571.28;5151128;28;20642;-82
2021/09/07 07:05:54;;;;;;;15.73;9.40;;;;;;;23.64;71.81;101580.09;5176487;28;20118;-82
2021/09/07 07:08:24;;;;;;;16.48;9.35;;;;;;;23.93;70.59;101587.72;5180576;28;20285;-82
2021/09/07 07:10:55;;;;;;;13.80;8.10;;;;;;;22.95;73.42;101588.66;5176451;28;20042;-82
2021/09/07 07:13:25;;;;;;;13.73;8.50;;;;;;;23.43;70.51;101593.22;5179702;28;20269;-82
2021/09/07 07:15:55;;;;;;;13.50;8.32;;;;;;;24.53;67.49;101583.06;5176725;28;20344;-82
2021/09/07 07:18:25;;;;;;;14.43;8.77;;;;;;;25.21;65.45;101584.75;5180065;28;20017;-82
2021/09/07 07:20:56;;;;;;;14.40;8.70;;;;;;;26.58;63.06;101582.09;5155283;28;20308;-82
2021/09/07 07:23:26;;;;;;;13.23;8.67;;;;;;;27.02;62.19;101588.00;5151223;28;20289;-82
2021/09/07 07:25:56;;;;;;;15.27;9.57;;;;;;;24.61;67.60;101583.34;5179261;28;20299;-82
2021/09/07 07:28:27;;;;;;;14.57;9.23;;;;;;;27.31;61.70;101594.34;5176466;28;20304;-82
2021/09/07 07:30:57;;;;;;;14.33;9.00;;;;;;;27.05;59.95;101598.47;5172820;28;20114;-82
2021/09/07 07:33:27;;;;;;;16.30;9.88;;;;;;;27.17;60.41;101594.72;5171558;28;20289;-81
2021/09/07 07:35:57;;;;;;;15.70;9.03;;;;;;;27.84;59.56;101590.41;5176309;28;20031;-82
2021/09/07 07:38:28;;;;;;;13.67;8.83;;;;;;;27.70;57.96;101597.97;5179289;28;20824;-82
2021/09/07 07:40:58;;;;;;;15.87;9.73;;;;;;;27.97;58.12;101596.34;5177421;28;20034;-82
2021/09/07 07:43:32;;;;;;;11.52;8.35;;;;;;;28.18;58.28;101588.16;5161908;28;20277;-82
2021/09/07 07:46:03;;;;;;;13.38;9.02;;;;;;;26.73;59.23;101601.38;5159276;28;20133;-83
2021/09/07 07:48:33;;;;;;;12.93;8.43;;;;;;;27.68;57.56;101599.97;5160229;28;20053;-82
2021/09/07 07:51:03;;;;;;;16.33;9.13;;;;;;;28.23;58.49;101592.13;5155476;28;20063;-82
2021/09/07 07:53:35;;;;;;;14.93;9.73;;;;;;;27.98;57.55;101594.53;5160404;28;20029;-82
2021/09/07 07:56:06;;;;;;;15.80;9.07;;;;;;;28.89;54.71;101597.41;5159791;28;20034;-83
2021/09/07 07:58:36;;;;;;;16.02;9.38;;;;;;;29.76;52.83;101582.56;5177323;28;20057;-82
2021/09/07 08:01:06;;;;;;;12.95;8.00;;;;;;;28.89;54.22;101591.19;5169502;28;20449;-82
2021/09/07 08:03:37;;;;;;;11.93;8.30;;;;;;;29.28;54.49;101587.34;5169997;28;20403;-82
2021/09/07 08:06:07;;;;;;;13.60;8.03;;;;;;;28.83;53.86;101592.59;5159696;28;20117;-82
2021/09/07 08:08:37;;;;;;;11.00;7.47;;;;;;;27.66;56.96;101592.06;5177885;28;20280;-82
2021/09/07 08:11:08;;;;;;;13.90;7.65;;;;;;;28.04;55.69;101589.44;5177415;28;20269;-82
2021/09/07 08:13:38;;;;;;;11.40;7.03;;;;;;;28.75;54.50;101588.94;5158684;28;20116;-82
2021/09/07 08:16:08;;;;;;;10.65;7.28;;;;;;;29.70;53.10;101593.94;5159580;28;20054;-81
2021/09/07 08:18:39;;;;;;;10.35;5.95;;;;;;;30.04;50.22;101590.44;5159329;28;20033;-82
2021/09/07 08:21:09;;;;;;;9.43;6.27;;;;;;;27.68;54.43;101605.34;5172084;28;20399;-82
2021/09/07 08:23:39;;;;;;;9.98;6.63;;;;;;;28.30;52.32;101597.78;5168738;28;20281;-81
2021/09/07 08:26:10;;;;;;;10.30;6.60;;;;;;;29.45;52.24;101587.41;5158104;28;20030;-82
2021/09/07 08:28:40;;;;;;;10.10;6.23;;;;;;;28.53;54.09;101594.66;5158640;28;20804;-82
2021/09/07 08:31:10;;;;;;;9.63;6.20;;;;;;;27.20;56.46;101596.28;5171617;28;20281;-82
2021/09/07 08:33:40;;;;;;;7.77;5.33;;;;;;;27.82;55.99;101599.59;5154107;28;20034;-82
2021/09/07 08:36:11;;;;;;;8.87;5.73;;;;;;;27.98;53.65;101598.03;5176514;28;20549;-82
2021/09/07 08:38:41;;;;;;;10.70;5.93;;;;;;;28.59;52.60;101588.69;5176169;28;20042;-82
2021/09/07 08:41:17;;;;;;;8.47;5.40;;;;;;;27.22;54.99;101597.84;5159826;28;20362;-82
2021/09/07 08:43:51;;;;;;;8.77;5.65;;;;;;;29.71;49.93;101598.34;5158635;28;20287;-81
2021/09/07 08:46:22;;;;;;;7.70;4.45;;;;;;;29.39;48.10;101595.25;5174415;28;20069;-82
2021/09/07 08:48:52;;;;;;;7.53;4.93;;;;;;;27.18;53.92;101607.19;5161221;28;20053;-81
2021/09/07 08:51:23;;;;;;;8.10;4.80;;;;;;;28.65;50.29;101598.03;5170527;28;20359;-82
2021/09/07 08:53:54;;;;;;;9.00;5.75;;;;;;;27.79;52.12;101600.72;5171290;28;20484;-82
2021/09/07 08:56:24;;;;;;;7.90;5.07;;;;;;;26.92;54.80;101602.34;5175716;28;20085;-81
2021/09/07 08:58:55;;;;;;;7.15;5.55;;;;;;;28.85;51.68;101595.13;5178250;28;20018;-82
2021/09/07 09:01:26;;;;;;;8.40;5.28;;;;;;;28.59;53.30;101599.47;5170080;28;20354;-82
2021/09/07 09:03:56;;;;;;;8.18;5.00;;;;;;;29.51;50.46;101589.53;5157110;28;20018;-82
2021/09/07 09:06:27;;;;;;;7.63;5.00;;;;;;;28.20;51.51;101602.28;5182618;28;20484;-81
2021/09/07 09:09:05;;;;;;;8.82;5.18;;;;;;;28.52;50.44;101601.03;5167010;28;20034;-81
2021/09/07 09:11:50;;;;;;;7.00;4.60;;;;;;;26.88;54.14;101604.44;5183490;28;20030;-82
2021/09/07 09:14:33;;;;;;;;;;;;;;;26.76;54.25;101605.50;5165471;28;20376;-82
2021/09/07 09:17:22;;;;;;;7.05;4.68;;;;;;;27.23;53.64;101598.69;5168526;28;19940;-82
2021/09/07 09:20:24;;;;;;;7.30;4.13;;;;;;;28.35;52.02;101598.22;5163674;28;20407;-81
2021/09/07 09:22:55;;;;;;;5.00;3.28;;;;;;;27.86;50.79;101598.31;5161207;28;20100;-81
2021/09/07 09:25:31;;;;;;;8.05;4.47;;;;;;;27.35;53.00;101608.34;5181451;28;20057;-81
2021/09/07 09:28:12;;;;;;;6.95;4.13;;;;;;;26.74;54.46;101598.59;5167051;28;20502;-81
2021/09/07 09:30:54;;;;;;;7.70;4.65;;;;;;;25.56;55.54;101604.16;5161987;28;20428;-80
2021/09/07 09:33:29;;;;;;;5.78;3.90;;;;;;;25.64;55.94;101600.88;5178530;28;20029;-81
2021/09/07 09:36:02;;;;;;;7.80;4.38;;;;;;;25.00;58.47;101605.13;5164663;28;20437;-80
2021/09/07 09:38:34;;;;;;;7.38;4.57;;;;;;;24.70;60.59;101601.34;5181151;28;20038;-81
2021/09/07 09:41:06;;;;;;;6.95;4.22;;;;;;;23.56;61.00;101610.00;5164403;28;20069;-80
2021/09/07 09:43:43;;;;;;;7.88;3.97;;;;;;;24.10;60.17;101606.00;5162467;28;20101;-81
2021/09/07 09:46:26;;;;;;;6.65;3.63;;;;;;;24.20;57.33;101600.81;5175731;28;20494;-80
2021/09/07 09:49:14;;;;;;;6.03;3.17;;;;;;;24.65;57.02;101597.31;5170125;28;20045;-81
2021/09/07 09:51:44;;;;;;;6.40;3.65;;;;;;;24.02;59.20;101602.19;5161927;28;20506;-81
2021/09/07 09:54:18;;;;;;;6.78;3.83;;;;;;;23.60;59.36;101598.19;5172994;28;20027;-80
2021/09/07 09:56:50;;;;;;;7.45;4.22;;;;;;;23.04;61.02;101604.00;5181799;28;20087;-80
2021/09/07 09:59:21;;;;;;;6.63;3.67;;;;;;;23.86;59.30;101594.44;5178568;28;20037;-80
2021/09/07 10:01:51;;;;;;;6.32;3.38;;;;;;;23.77;60.64;101592.44;5146588;28;20290;-80
2021/09/07 10:04:23;;;;;;;5.32;2.95;;;;;;;22.69;60.99;101596.78;5171983;28;20100;-81
2021/09/07 10:06:54;;;;;;;4.93;2.88;;;;;;;22.53;60.38;101592.59;5154090;28;20034;-81
2021/09/07 10:09:26;;;;;;;5.00;2.72;;;;;;;23.02;59.27;101581.94;5175154;28;20022;-80
2021/09/07 10:12:04;;;;;;;4.97;2.70;;;;;;;23.16;59.00;101589.84;5157070;28;20080;-79
2021/09/07 10:14:38;;;;;;;5.93;3.13;;;;;;;23.47;57.92;101580.47;5177058;28;20033;-80
2021/09/07 10:17:34;;;;;;;4.57;2.90;;;;;;;23.60;58.74;101574.16;5178067;28;20439;-80
2021/09/07 10:26:01;;;;;;;3.60;2.10;;;;;;;23.04;57.39;101577.34;5178271;28;20037;-79
2021/09/07 10:28:38;;;;;;;5.53;2.47;;;;;;;22.40;58.34;101584.59;5179031;28;20113;-80
2021/09/07 10:31:09;;;;;;;3.97;2.50;;;;;;;22.42;58.67;101584.50;5170952;28;20427;-80
2021/09/07 10:33:40;;;;;;;3.80;2.28;;;;;;;22.54;58.04;101576.53;5172468;28;20072;-80
2021/09/07 10:36:12;;;;;;;4.85;2.20;;;;;;;22.67;58.40;101577.38;5177993;28;20036;-80
2021/09/07 10:38:44;;;;;;;5.35;2.45;;;;;;;22.85;58.91;101574.28;5201886;22;20045;-80
2021/09/07 10:41:29;;;;;;;4.82;2.83;;;;;;;22.95;61.99;101575.34;5206406;28;20052;-80
2021/09/07 10:44:07;;;;;;;5.30;2.88;;;;;;;23.15;60.15;101574.81;5205391;28;20053;-80
2021/09/07 10:46:44;;;;;;;4.78;2.88;;;;;;;22.87;60.09;101568.84;5206148;28;20036;-80
2021/09/07 10:49:26;;;;;;;5.93;3.20;;;;;;;23.33;59.33;101562.81;5181131;28;20032;-81
2021/09/07 10:55:13;;;;;;;4.60;2.60;;;;;;;23.24;58.81;101571.50;5195797;28;20123;-80
2021/09/07 10:57:45;;;;;;;5.55;3.17;;;;;;;23.14;59.30;101559.75;5197293;28;20527;-80
2021/09/07 11:00:18;;;;;;;5.00;2.95;;;;;;;22.98;60.27;101559.13;5195239;28;20038;-80
2021/09/07 11:02:49;;;;;;;6.72;3.10;;;;;;;22.38;60.62;101556.31;5187450;28;20033;-80
2021/09/07 11:08:02;;;;;;;3.75;2.30;;;;;;;23.06;58.60;101551.41;5193072;28;20060;-80
2021/09/07 11:10:38;;;;;;;7.75;2.47;;;;;;;23.01;58.62;101558.06;5179440;28;20101;-80
2021/09/07 11:13:08;;;;;;;;;;;;;;;23.37;58.04;101555.44;5181283;28;20222;-81
2021/09/07 11:15:41;;;;;;;4.43;2.67;;;;;;;23.20;56.62;101553.97;5178350;28;19952;-80
2021/09/07 11:18:13;;;;;;;4.45;2.50;;;;;;;23.25;57.61;101551.84;5197620;28;20268;-80
2021/09/07 11:20:46;;;;;;;5.05;2.50;;;;;;;22.80;60.83;101548.88;5175310;28;20026;-80
2021/09/07 11:23:31;;;;;;;4.25;2.40;;;;;;;22.99;58.27;101543.97;5167386;28;20084;-80
2021/09/07 11:26:08;;;;;;;4.07;2.38;;;;;;;23.44;57.14;101541.53;5193779;28;20045;-81
2021/09/07 11:28:41;;;;;;;5.10;2.30;;;;;;;23.41;59.75;101540.88;5196594;28;20081;-80
2021/09/07 11:31:12;;;;;;;3.65;2.30;;;;;;;23.19;57.67;101548.75;5190626;28;20060;-80
2021/09/07 11:33:44;;;;;;;3.90;2.35;;;;;;;23.21;59.44;101539.66;5172721;28;20041;-80
2021/09/07 11:36:16;;;;;;;4.05;2.50;;;;;;;23.08;56.47;101536.16;5197171;28;20040;-80
2021/09/07 11:38:49;;;;;;;4.13;2.13;;;;;;;23.11;56.02;101537.75;5177811;28;20254;-81
2021/09/07 11:41:22;;;;;;;4.38;2.50;;;;;;;22.98;56.26;101536.94;5180698;28;20395;-80
2021/09/07 11:43:56;;;;;;;3.72;2.25;;;;;;;22.96;59.50;101536.16;5194755;28;20049;-80
2021/09/07 11:46:38;;;;;;;3.60;2.00;;;;;;;23.34;59.10;101536.97;5180110;28;20398;-81
2021/09/07 11:49:11;;;;;;;4.85;2.50;;;;;;;22.91;58.79;101536.53;5196857;28;20364;-80
2021/09/07 11:51:45;;;;;;;5.78;2.13;;;;;;;22.98;60.56;101528.94;5170671;28;20286;-80